Time;durP1;ratioP1;P1;durP2;ratioP2;P2;SDS_P1;SDS_P2;PMS_P1;PMS_P2;Temp;Humidity;BMP_temperature;BMP_pressure;BME280_temperature;BME280_humidity;BME280_pressure;Samples;Min_cycle;Max_cycle;Signal;HPM_P1;HPM_P2
2023/03/23 09:29:08;;;;;;;2.90;1.40;;;;;;;18.27;63.89;99385.91;176888;1289;581135;31
2023/03/23 09:38:07;;;;;;;3.30;1.90;;;;;;;18.46;62.36;99389.01;179845;1265;45731;31
2023/03/23 09:56:47;;;;;;;0.70;0.60;;;;;;;18.24;62.78;99386.61;180959;1255;44119;31
2023/03/23 10:25:28;;;;;;;1.50;0.80;;;;;;;18.26;62.91;99408.61;181061;1254;44233;31
2023/03/23 10:43:56;;;;;;;1.40;1.20;;;;;;;18.15;62.24;99397.25;180776;1256;44195;31
2023/03/23 10:48:39;;;;;;;0.80;0.80;;;;;;;17.98;64.04;99407.54;180867;1258;45104;31
2023/03/23 11:02:57;;;;;;;3.50;1.80;;;;;;;18.05;66.83;99411.38;181055;1254;44347;31
2023/03/23 11:12:19;;;;;;;2.90;2.10;;;;;;;18.25;64.96;99414.04;180889;1256;44264;31
2023/03/23 11:21:53;;;;;;;3.80;1.80;;;;;;;18.54;63.20;99417.88;181048;1254;44888;31
2023/03/23 11:31:03;;;;;;;2.90;1.30;;;;;;;18.28;65.16;99425.64;179767;1254;44069;31
2023/03/23 11:35:22;;;;;;;2.40;1.10;;;;;;;18.01;64.95;99420.54;181047;1260;44248;31
2023/03/23 11:49:00;;;;;;;3.80;1.60;;;;;;;18.36;66.44;99421.39;180805;1261;45203;31
2023/03/23 11:54:04;;;;;;;1.60;1.30;;;;;;;18.64;64.54;99424.09;181221;1255;44539;31
2023/03/23 12:22:54;;;;;;;3.70;2.00;;;;;;;19.04;65.82;99434.19;180773;1255;44523;31
2023/03/23 12:27:59;;;;;;;2.90;1.80;;;;;;;19.18;63.77;99429.26;180703;1263;59392;31
2023/03/23 12:32:31;;;;;;;2.00;1.80;;;;;;;19.19;65.01;99436.36;180621;1261;45001;31
2023/03/23 12:41:25;;;;;;;3.40;1.70;;;;;;;19.03;63.91;99426.10;179671;1259;44645;31
2023/03/23 13:20:15;;;;;;;2.90;2.30;;;;;;;18.29;71.89;99449.71;181075;1258;45113;31
2023/03/23 13:24:34;;;;;;;4.60;2.70;;;;;;;18.26;71.64;99447.58;180960;1255;45900;31
2023/03/23 13:43:07;;;;;;;4.00;2.70;;;;;;;18.03;73.00;99437.77;181011;1254;44209;31
2023/03/23 13:47:20;;;;;;;8.10;3.20;;;;;;;18.02;72.23;99434.95;179853;1260;44333;-89
2023/03/23 14:05:40;;;;;;;6.80;2.80;;;;;;;18.20;72.68;99428.63;180046;1260;45496;31
2023/03/23 14:14:35;;;;;;;3.00;2.40;;;;;;;18.32;72.81;99427.58;180763;1255;43154;31
2023/03/23 14:19:30;;;;;;;4.70;3.30;;;;;;;18.46;73.74;99429.31;180038;1254;45049;31
2023/03/23 14:23:51;;;;;;;2.20;1.80;;;;;;;18.46;73.34;99425.70;180589;1257;58496;31
2023/03/23 14:27:59;;;;;;;5.10;2.60;;;;;;;18.52;75.24;99425.58;180809;1255;44068;31
2023/03/23 14:32:07;;;;;;;7.00;2.80;;;;;;;18.56;76.52;99433.55;180512;1260;44521;31
2023/03/23 14:36:10;;;;;;;2.70;2.50;;;;;;;18.59;75.81;99431.54;180008;1259;44169;-89
2023/03/23 14:44:33;;;;;;;4.40;2.90;;;;;;;18.55;75.80;99432.55;180222;1263;59600;-88
2023/03/23 14:48:41;;;;;;;4.90;2.80;;;;;;;18.49;76.32;99429.36;180092;1264;46008;-88
2023/03/23 14:52:43;;;;;;;4.40;3.70;;;;;;;18.50;77.02;99425.03;179702;1264;44111;-89
2023/03/23 14:56:45;;;;;;;3.90;2.50;;;;;;;18.53;78.14;99421.36;179245;1264;46621;-88
2023/03/23 15:01:03;;;;;;;5.90;3.10;;;;;;;18.49;77.53;99414.50;178990;1264;46156;-88
2023/03/23 15:05:16;;;;;;;3.40;1.80;;;;;;;18.42;78.70;99408.83;178909;1265;57948;-89
2023/03/23 15:18:38;;;;;;;4.50;1.70;;;;;;;18.34;76.12;99390.19;180128;1263;46919;-91
2023/03/23 15:22:53;;;;;;;2.10;1.60;;;;;;;18.28;75.73;99390.25;179786;1264;52602;-88
2023/03/23 15:27:03;;;;;;;;;;;;;;;18.22;77.14;99379.77;179925;1262;59527;-88
2023/03/23 15:31:17;;;;;;;2.70;2.40;;;;;;;18.11;76.51;99384.02;180239;1264;49176;-87
2023/03/23 15:35:27;;;;;;;4.80;2.40;;;;;;;17.98;77.11;99388.66;180904;1255;44420;31
2023/03/23 15:39:46;;;;;;;1.30;1.10;;;;;;;17.82;77.52;99381.70;180825;1254;45943;31
2023/03/23 15:48:13;;;;;;;1.70;1.60;;;;;;;17.62;77.58;99385.36;180902;1258;59468;-86
2023/03/23 15:52:16;;;;;;;2.40;2.20;;;;;;;17.59;77.68;99391.05;180849;1258;45892;-86
2023/03/23 15:56:31;;;;;;;2.70;2.40;;;;;;;17.56;78.54;99397.36;181001;1255;45611;31
2023/03/23 16:00:39;;;;;;;2.50;0.90;;;;;;;17.45;78.70;99392.45;180065;1256;44902;31
2023/03/23 16:05:12;;;;;;;1.40;1.10;;;;;;;17.34;77.78;99391.33;180452;1263;45718;31
2023/03/23 16:13:52;;;;;;;8.30;1.60;;;;;;;17.23;79.81;99394.77;180988;1254;45185;31
2023/03/23 16:18:03;;;;;;;2.10;1.10;;;;;;;17.14;80.31;99390.92;177854;1258;44240;31
2023/03/23 16:22:30;;;;;;;4.40;1.70;;;;;;;17.05;80.46;99400.90;180819;1254;44219;31
2023/03/23 16:27:58;;;;;;;4.60;2.80;;;;;;;16.98;80.33;99407.44;179647;1254;44859;31
2023/03/23 16:36:49;;;;;;;5.20;2.80;;;;;;;16.94;80.89;99408.49;173356;1258;44822;31
2023/03/23 17:04:48;;;;;;;2.80;2.20;;;;;;;16.46;79.42;99439.19;179697;1257;44223;31
2023/03/23 17:09:33;;;;;;;3.10;2.20;;;;;;;16.45;79.33;99434.43;180251;1253;44179;31
2023/03/23 17:14:05;;;;;;;6.60;3.30;;;;;;;16.37;79.92;99435.06;180990;1255;45031;31
2023/03/23 17:51:46;;;;;;;6.30;3.70;;;;;;;16.21;79.50;99465.18;180854;1258;44266;31
2023/03/23 18:06:10;;;;;;;5.80;3.90;;;;;;;16.20;80.16;99457.27;179274;1262;57952;31
2023/03/23 18:34:23;;;;;;;6.90;3.10;;;;;;;15.97;80.85;99505.69;180888;1259;45128;31
2023/03/23 19:22:57;;;;;;;5.10;3.90;;;;;;;16.03;81.04;99514.25;179245;1260;44256;31
2023/03/23 19:27:20;;;;;;;3.30;2.50;;;;;;;15.95;81.55;99516.30;179258;1263;44378;31
2023/03/23 19:32:15;;;;;;;5.80;3.20;;;;;;;15.82;81.52;99520.71;180273;1260;45696;31
2023/03/23 19:36:46;;;;;;;3.40;2.80;;;;;;;15.75;82.99;99514.93;179411;1258;44744;31
2023/03/23 19:41:15;;;;;;;13.50;4.10;;;;;;;15.66;82.91;99513.27;179137;1258;57965;31
2023/03/23 19:56:45;;;;;;;3.20;2.90;;;;;;;15.66;80.26;99522.56;177006;1260;44931;31
2023/03/23 20:01:16;;;;;;;3.50;2.70;;;;;;;15.72;80.35;99525.27;179086;1264;44273;31
2023/03/23 20:05:22;;;;;;;6.10;3.80;;;;;;;15.74;80.83;99530.39;180417;1266;58816;-86
2023/03/23 20:09:25;;;;;;;6.00;2.60;;;;;;;15.68;81.10;99539.30;180143;1267;44021;-86
2023/03/23 20:13:29;;;;;;;4.00;2.90;;;;;;;15.55;81.25;99549.36;180271;1266;44010;-87
2023/03/23 20:17:32;;;;;;;5.00;3.50;;;;;;;15.42;81.60;99552.54;180232;1265;43849;-87
2023/03/23 20:21:36;;;;;;;4.00;3.20;;;;;;;15.23;82.51;99548.98;180225;1266;43805;-86
2023/03/23 20:25:41;;;;;;;3.00;2.60;;;;;;;15.10;82.31;99548.67;180256;1266;59630;-87
2023/03/23 20:29:46;;;;;;;6.00;3.10;;;;;;;15.02;81.94;99546.39;180224;1267;43945;-87
2023/03/23 20:33:54;;;;;;;4.80;4.30;;;;;;;14.81;83.73;99536.23;180290;1267;44074;-87
2023/03/23 20:38:03;;;;;;;4.70;3.60;;;;;;;14.54;83.92;99533.27;179931;1265;44065;-86
2023/03/23 20:42:07;;;;;;;6.20;4.90;;;;;;;14.36;84.41;99531.46;180192;1267;44142;-86
2023/03/23 20:46:11;;;;;;;9.10;6.50;;;;;;;14.26;84.51;99539.34;180216;1265;58539;-86
2023/03/23 20:50:14;;;;;;;10.30;7.50;;;;;;;14.20;84.51;99537.43;180215;1265;44374;-87
2023/03/23 20:54:21;;;;;;;10.60;6.80;;;;;;;14.15;84.04;99545.48;180332;1266;44471;-86
2023/03/23 20:58:26;;;;;;;6.20;4.70;;;;;;;14.08;84.16;99541.98;180071;1266;44146;-86
2023/03/23 21:02:30;;;;;;;7.10;4.60;;;;;;;13.97;83.93;99541.23;180443;1265;43742;-86
2023/03/23 21:06:35;;;;;;;6.10;4.20;;;;;;;13.86;84.59;99550.19;180348;1267;59879;-86
2023/03/23 21:10:39;;;;;;;6.20;4.90;;;;;;;13.72;85.67;99555.48;180022;1265;44171;-87
2023/03/23 21:14:43;;;;;;;7.40;5.20;;;;;;;13.59;85.53;99558.92;180259;1267;43978;-84
2023/03/23 21:18:47;;;;;;;6.50;4.70;;;;;;;13.53;85.41;99563.11;180297;1267;43901;-87
2023/03/23 21:22:50;;;;;;;5.40;4.60;;;;;;;13.49;85.21;99568.85;180221;1267;43852;-86
2023/03/23 21:26:58;;;;;;;11.80;4.30;;;;;;;13.41;85.53;99572.52;180367;1267;58335;-86
2023/03/23 21:31:04;;;;;;;8.80;4.10;;;;;;;13.35;85.70;99570.13;180241;1267;193804;-86
2023/03/23 21:35:08;;;;;;;5.70;4.30;;;;;;;13.25;85.63;99567.98;180248;1267;43923;-87
2023/03/23 21:39:12;;;;;;;5.30;4.10;;;;;;;13.09;86.44;99567.66;180476;1267;44172;-87
2023/03/23 21:43:15;;;;;;;4.50;3.40;;;;;;;12.98;87.88;99562.21;180345;1266;44376;-87
2023/03/23 21:47:19;;;;;;;7.10;5.20;;;;;;;12.91;88.92;99552.20;180423;1267;58210;-87
2023/03/23 21:51:25;;;;;;;14.50;7.00;;;;;;;12.76;90.23;99544.35;180415;1267;43856;-87
2023/03/23 21:55:30;;;;;;;9.60;6.50;;;;;;;12.71;90.18;99539.37;180219;1266;44235;-87
2023/03/23 21:59:33;;;;;;;18.50;10.90;;;;;;;12.68;90.51;99545.67;180166;1267;44132;-87
2023/03/23 22:03:38;;;;;;;17.40;9.80;;;;;;;12.65;91.39;99550.25;180285;1267;44232;-87
2023/03/23 22:07:42;;;;;;;16.70;8.90;;;;;;;12.66;91.17;99547.85;180362;1267;60195;-87
2023/03/23 22:11:46;;;;;;;11.00;7.60;;;;;;;12.64;91.40;99549.15;180393;1266;44216;-87
2023/03/23 22:15:50;;;;;;;9.20;5.30;;;;;;;12.60;92.16;99548.77;180338;1266;43797;-87
2023/03/23 22:19:54;;;;;;;6.90;5.00;;;;;;;12.65;92.51;99547.55;180168;1267;44212;-86
2023/03/23 22:23:59;;;;;;;8.10;3.90;;;;;;;12.74;92.58;99540.83;180422;1267;43885;-87
2023/03/23 22:28:04;;;;;;;3.80;3.40;;;;;;;12.78;92.82;99538.85;180307;1267;60458;-87
2023/03/23 22:32:07;;;;;;;5.60;4.50;;;;;;;12.87;91.96;99540.17;180294;1267;44082;-87
2023/03/23 22:41:01;;;;;;;4.60;3.70;;;;;;;13.09;90.31;99540.09;178507;1258;45745;31
2023/03/23 22:45:45;;;;;;;4.60;3.20;;;;;;;13.14;89.53;99534.94;180545;1263;45867;31
2023/03/23 22:50:29;;;;;;;4.30;2.50;;;;;;;13.14;89.30;99535.27;180426;1258;58827;31
2023/03/23 22:55:20;;;;;;;3.00;2.70;;;;;;;13.19;89.61;99529.59;179764;1263;44948;-91
2023/03/23 23:04:50;;;;;;;4.10;2.70;;;;;;;13.29;91.01;99523.55;180357;1259;44434;31
2023/03/23 23:17:52;;;;;;;4.10;3.40;;;;;;;13.47;91.51;99514.20;180367;1266;43833;-91
2023/03/23 23:27:11;;;;;;;6.90;3.90;;;;;;;13.63;91.11;99501.55;180428;1258;45832;31
2023/03/23 23:40:47;;;;;;;;;;;;;;;13.57;91.35;99502.67;179550;1262;45087;-90
2023/03/23 23:49:44;;;;;;;6.70;4.30;;;;;;;13.62;90.69;99487.68;176785;1262;44512;-90
2023/03/23 23:54:31;;;;;;;3.50;3.10;;;;;;;13.47;92.17;99489.49;171950;1261;45049;31
